sensor_id;sensor_type;location;lat;lon;timestamp;temperature;humidity
20590;DHT22;10453;50.810;12.540;2023-06-26T00:02:21;17.10;99.90
20590;DHT22;10453;50.810;12.540;2023-06-26T00:06:38;16.90;99.90
20590;DHT22;10453;50.810;12.540;2023-06-26T00:10:56;16.80;99.90
20590;DHT22;10453;50.810;12.540;2023-06-26T00:15:13;16.60;99.90
20590;DHT22;10453;50.810;12.540;2023-06-26T00:19:30;16.50;99.90
20590;DHT22;10453;50.810;12.540;2023-06-26T00:23:48;16.50;99.90
20590;DHT22;10453;50.810;12.540;2023-06-26T00:28:05;16.40;99.90
20590;DHT22;10453;50.810;12.540;2023-06-26T00:32:22;16.30;99.90
20590;DHT22;10453;50.810;12.540;2023-06-26T00:36:40;16.20;99.90
20590;DHT22;10453;50.810;12.540;2023-06-26T00:41:00;16.20;99.90
20590;DHT22;10453;50.810;12.540;2023-06-26T00:45:17;16.10;99.90
20590;DHT22;10453;50.810;12.540;2023-06-26T00:49:49;16.10;99.90
20590;DHT22;10453;50.810;12.540;2023-06-26T00:54:07;16.10;99.90
20590;DHT22;10453;50.810;12.540;2023-06-26T00:58:25;16.10;99.90
20590;DHT22;10453;50.810;12.540;2023-06-26T01:02:42;16.10;99.90
20590;DHT22;10453;50.810;12.540;2023-06-26T01:07:02;16.00;99.90
20590;DHT22;10453;50.810;12.540;2023-06-26T01:11:19;16.00;99.90
20590;DHT22;10453;50.810;12.540;2023-06-26T01:15:36;15.80;99.90
20590;DHT22;10453;50.810;12.540;2023-06-26T01:19:54;15.80;99.90
20590;DHT22;10453;50.810;12.540;2023-06-26T01:24:17;15.70;99.90
20590;DHT22;10453;50.810;12.540;2023-06-26T01:28:41;15.70;99.90
20590;DHT22;10453;50.810;12.540;2023-06-26T01:33:00;15.60;99.90
20590;DHT22;10453;50.810;12.540;2023-06-26T01:37:18;15.60;99.90
20590;DHT22;10453;50.810;12.540;2023-06-26T01:41:35;15.50;99.90
20590;DHT22;10453;50.810;12.540;2023-06-26T01:45:59;15.50;99.90
20590;DHT22;10453;50.810;12.540;2023-06-26T01:50:22;15.50;99.90
20590;DHT22;10453;50.810;12.540;2023-06-26T01:59:07;15.30;99.90
20590;DHT22;10453;50.810;12.540;2023-06-26T02:03:24;15.30;99.90
20590;DHT22;10453;50.810;12.540;2023-06-26T02:07:42;15.20;99.90
20590;DHT22;10453;50.810;12.540;2023-06-26T02:12:00;15.20;99.90
20590;DHT22;10453;50.810;12.540;2023-06-26T02:16:18;15.20;99.90
20590;DHT22;10453;50.810;12.540;2023-06-26T02:20:36;15.20;99.90
20590;DHT22;10453;50.810;12.540;2023-06-26T02:24:53;15.10;99.90
20590;DHT22;10453;50.810;12.540;2023-06-26T02:29:11;15.10;99.90
20590;DHT22;10453;50.810;12.540;2023-06-26T02:33:29;15.10;99.90
20590;DHT22;10453;50.810;12.540;2023-06-26T02:37:46;15.10;99.90
20590;DHT22;10453;50.810;12.540;2023-06-26T02:42:04;15.10;99.90
20590;DHT22;10453;50.810;12.540;2023-06-26T02:46:21;14.90;99.90
20590;DHT22;10453;50.810;12.540;2023-06-26T02:50:39;14.90;99.90
20590;DHT22;10453;50.810;12.540;2023-06-26T02:54:57;14.80;99.90
20590;DHT22;10453;50.810;12.540;2023-06-26T02:59:14;14.80;99.90
20590;DHT22;10453;50.810;12.540;2023-06-26T03:03:31;14.80;99.90
20590;DHT22;10453;50.810;12.540;2023-06-26T03:07:57;14.80;99.90
20590;DHT22;10453;50.810;12.540;2023-06-26T03:12:15;14.80;99.90
20590;DHT22;10453;50.810;12.540;2023-06-26T03:16:32;14.80;99.90
20590;DHT22;10453;50.810;12.540;2023-06-26T03:20:49;14.90;99.90
20590;DHT22;10453;50.810;12.540;2023-06-26T03:25:07;14.90;99.90
20590;DHT22;10453;50.810;12.540;2023-06-26T03:29:25;14.90;99.90
20590;DHT22;10453;50.810;12.540;2023-06-26T03:33:42;14.90;99.90
20590;DHT22;10453;50.810;12.540;2023-06-26T03:37:59;14.90;99.90
20590;DHT22;10453;50.810;12.540;2023-06-26T03:42:17;14.90;99.90
20590;DHT22;10453;50.810;12.540;2023-06-26T03:46:35;15.00;99.90
20590;DHT22;10453;50.810;12.540;2023-06-26T03:50:52;15.10;99.90
20590;DHT22;10453;50.810;12.540;2023-06-26T03:55:10;15.00;99.90
20590;DHT22;10453;50.810;12.540;2023-06-26T03:59:27;15.00;99.90
20590;DHT22;10453;50.810;12.540;2023-06-26T04:03:45;15.10;99.90
20590;DHT22;10453;50.810;12.540;2023-06-26T04:08:02;15.20;99.90
20590;DHT22;10453;50.810;12.540;2023-06-26T04:12:19;15.20;99.90
20590;DHT22;10453;50.810;12.540;2023-06-26T04:16:37;15.30;99.90
20590;DHT22;10453;50.810;12.540;2023-06-26T04:21:24;15.40;99.90
20590;DHT22;10453;50.810;12.540;2023-06-26T04:25:42;15.50;99.90
20590;DHT22;10453;50.810;12.540;2023-06-26T04:29:59;15.60;99.90
20590;DHT22;10453;50.810;12.540;2023-06-26T04:34:17;15.70;99.90
20590;DHT22;10453;50.810;12.540;2023-06-26T04:38:34;15.70;99.90
20590;DHT22;10453;50.810;12.540;2023-06-26T04:42:52;15.80;99.90
20590;DHT22;10453;50.810;12.540;2023-06-26T04:47:09;15.80;99.90
20590;DHT22;10453;50.810;12.540;2023-06-26T04:51:27;15.90;99.90
20590;DHT22;10453;50.810;12.540;2023-06-26T04:55:46;16.00;99.90
20590;DHT22;10453;50.810;12.540;2023-06-26T05:00:03;16.20;99.90
20590;DHT22;10453;50.810;12.540;2023-06-26T05:04:26;16.30;99.90
20590;DHT22;10453;50.810;12.540;2023-06-26T05:08:44;16.40;99.90
20590;DHT22;10453;50.810;12.540;2023-06-26T05:13:01;16.50;99.90
20590;DHT22;10453;50.810;12.540;2023-06-26T05:17:19;16.60;99.90
20590;DHT22;10453;50.810;12.540;2023-06-26T05:21:36;16.80;99.90
20590;DHT22;10453;50.810;12.540;2023-06-26T05:25:54;16.90;99.90
20590;DHT22;10453;50.810;12.540;2023-06-26T05:30:12;17.10;99.90
20590;DHT22;10453;50.810;12.540;2023-06-26T05:34:29;17.30;99.90
20590;DHT22;10453;50.810;12.540;2023-06-26T05:38:49;17.40;99.90
20590;DHT22;10453;50.810;12.540;2023-06-26T05:43:07;17.50;99.90
20590;DHT22;10453;50.810;12.540;2023-06-26T05:47:25;17.70;99.90
20590;DHT22;10453;50.810;12.540;2023-06-26T05:51:43;17.80;99.90
20590;DHT22;10453;50.810;12.540;2023-06-26T05:56:00;18.00;99.90
20590;DHT22;10453;50.810;12.540;2023-06-26T06:00:18;18.20;99.90
20590;DHT22;10453;50.810;12.540;2023-06-26T06:04:36;18.40;99.90
20590;DHT22;10453;50.810;12.540;2023-06-26T06:08:54;18.70;99.90
20590;DHT22;10453;50.810;12.540;2023-06-26T06:13:11;19.00;99.90
20590;DHT22;10453;50.810;12.540;2023-06-26T06:17:29;19.20;99.90
20590;DHT22;10453;50.810;12.540;2023-06-26T06:21:46;19.90;99.90
20590;DHT22;10453;50.810;12.540;2023-06-26T06:26:04;20.50;99.90
20590;DHT22;10453;50.810;12.540;2023-06-26T06:30:21;20.80;99.90
20590;DHT22;10453;50.810;12.540;2023-06-26T06:34:58;21.40;99.90
20590;DHT22;10453;50.810;12.540;2023-06-26T06:39:16;21.60;99.90
20590;DHT22;10453;50.810;12.540;2023-06-26T06:43:33;21.80;99.90
20590;DHT22;10453;50.810;12.540;2023-06-26T06:47:50;22.10;99.90
20590;DHT22;10453;50.810;12.540;2023-06-26T06:52:08;22.40;99.90
20590;DHT22;10453;50.810;12.540;2023-06-26T06:56:26;22.50;99.90
20590;DHT22;10453;50.810;12.540;2023-06-26T07:00:43;22.80;99.90
20590;DHT22;10453;50.810;12.540;2023-06-26T07:05:00;23.00;99.90
20590;DHT22;10453;50.810;12.540;2023-06-26T07:09:18;23.30;99.90
20590;DHT22;10453;50.810;12.540;2023-06-26T07:13:35;23.50;99.90
20590;DHT22;10453;50.810;12.540;2023-06-26T07:17:52;23.70;99.90
20590;DHT22;10453;50.810;12.540;2023-06-26T07:22:09;24.10;99.90
20590;DHT22;10453;50.810;12.540;2023-06-26T07:26:26;24.40;99.90
20590;DHT22;10453;50.810;12.540;2023-06-26T07:31:00;24.40;99.90
20590;DHT22;10453;50.810;12.540;2023-06-26T07:35:18;24.30;99.90
20590;DHT22;10453;50.810;12.540;2023-06-26T07:39:35;24.30;99.90
20590;DHT22;10453;50.810;12.540;2023-06-26T07:43:52;24.40;99.90
20590;DHT22;10453;50.810;12.540;2023-06-26T07:48:09;24.50;99.90
20590;DHT22;10453;50.810;12.540;2023-06-26T07:52:27;24.80;99.90
20590;DHT22;10453;50.810;12.540;2023-06-26T07:57:01;26.10;99.90
20590;DHT22;10453;50.810;12.540;2023-06-26T08:01:19;27.70;99.90
20590;DHT22;10453;50.810;12.540;2023-06-26T08:05:36;28.30;99.90
20590;DHT22;10453;50.810;12.540;2023-06-26T08:09:53;28.40;99.90
20590;DHT22;10453;50.810;12.540;2023-06-26T08:14:11;28.90;99.90
20590;DHT22;10453;50.810;12.540;2023-06-26T08:18:31;28.80;95.20
20590;DHT22;10453;50.810;12.540;2023-06-26T08:22:48;29.70;98.60
20590;DHT22;10453;50.810;12.540;2023-06-26T08:27:08;29.80;90.70
20590;DHT22;10453;50.810;12.540;2023-06-26T08:31:25;29.60;90.40
20590;DHT22;10453;50.810;12.540;2023-06-26T08:35:42;30.90;85.60
20590;DHT22;10453;50.810;12.540;2023-06-26T08:40:00;31.10;89.40
20590;DHT22;10453;50.810;12.540;2023-06-26T08:44:17;30.70;78.00
20590;DHT22;10453;50.810;12.540;2023-06-26T08:48:35;30.10;80.40
20590;DHT22;10453;50.810;12.540;2023-06-26T08:52:59;29.90;82.70
20590;DHT22;10453;50.810;12.540;2023-06-26T08:57:22;31.00;82.60
20590;DHT22;10453;50.810;12.540;2023-06-26T09:01:40;30.20;79.00
20590;DHT22;10453;50.810;12.540;2023-06-26T09:05:58;30.20;79.40
20590;DHT22;10453;50.810;12.540;2023-06-26T09:10:15;31.00;72.40
20590;DHT22;10453;50.810;12.540;2023-06-26T09:14:33;31.30;75.00
20590;DHT22;10453;50.810;12.540;2023-06-26T09:18:52;31.10;70.20
20590;DHT22;10453;50.810;12.540;2023-06-26T09:23:09;31.30;76.10
20590;DHT22;10453;50.810;12.540;2023-06-26T09:27:27;32.00;83.70
20590;DHT22;10453;50.810;12.540;2023-06-26T09:31:44;33.00;75.60
20590;DHT22;10453;50.810;12.540;2023-06-26T09:36:04;31.90;68.20
20590;DHT22;10453;50.810;12.540;2023-06-26T09:40:21;31.80;63.10
20590;DHT22;10453;50.810;12.540;2023-06-26T09:44:43;32.10;75.60
20590;DHT22;10453;50.810;12.540;2023-06-26T09:49:06;32.20;71.20
20590;DHT22;10453;50.810;12.540;2023-06-26T09:53:25;32.40;63.20
20590;DHT22;10453;50.810;12.540;2023-06-26T09:57:42;32.60;61.30
20590;DHT22;10453;50.810;12.540;2023-06-26T10:02:03;32.50;62.00
20590;DHT22;10453;50.810;12.540;2023-06-26T10:06:35;32.50;63.40
20590;DHT22;10453;50.810;12.540;2023-06-26T10:10:53;32.60;55.90
20590;DHT22;10453;50.810;12.540;2023-06-26T10:15:10;32.50;58.40
20590;DHT22;10453;50.810;12.540;2023-06-26T10:19:32;33.50;59.90
20590;DHT22;10453;50.810;12.540;2023-06-26T10:23:51;33.10;62.70
20590;DHT22;10453;50.810;12.540;2023-06-26T10:28:10;33.70;64.20
20590;DHT22;10453;50.810;12.540;2023-06-26T10:32:28;33.80;55.60
20590;DHT22;10453;50.810;12.540;2023-06-26T10:36:46;34.10;62.20
20590;DHT22;10453;50.810;12.540;2023-06-26T10:41:10;34.50;63.70
20590;DHT22;10453;50.810;12.540;2023-06-26T10:45:28;34.20;59.30
20590;DHT22;10453;50.810;12.540;2023-06-26T10:49:47;33.60;54.30
20590;DHT22;10453;50.810;12.540;2023-06-26T10:54:21;33.70;57.60
20590;DHT22;10453;50.810;12.540;2023-06-26T11:03:00;34.50;54.20
20590;DHT22;10453;50.810;12.540;2023-06-26T11:16:15;34.10;51.90
20590;DHT22;10453;50.810;12.540;2023-06-26T11:20:33;34.40;52.50
20590;DHT22;10453;50.810;12.540;2023-06-26T11:24:53;34.80;54.20
20590;DHT22;10453;50.810;12.540;2023-06-26T11:29:11;33.90;53.20
20590;DHT22;10453;50.810;12.540;2023-06-26T11:33:29;34.30;48.40
20590;DHT22;10453;50.810;12.540;2023-06-26T11:37:46;34.40;49.30
20590;DHT22;10453;50.810;12.540;2023-06-26T11:42:05;35.20;51.60
20590;DHT22;10453;50.810;12.540;2023-06-26T11:46:22;34.60;53.00
20590;DHT22;10453;50.810;12.540;2023-06-26T11:50:39;35.00;52.70
20590;DHT22;10453;50.810;12.540;2023-06-26T11:54:57;35.70;53.20
20590;DHT22;10453;50.810;12.540;2023-06-26T11:59:14;35.20;47.80
20590;DHT22;10453;50.810;12.540;2023-06-26T12:03:32;35.60;54.30
20590;DHT22;10453;50.810;12.540;2023-06-26T12:07:50;35.60;45.90
20590;DHT22;10453;50.810;12.540;2023-06-26T12:12:09;34.70;48.60
20590;DHT22;10453;50.810;12.540;2023-06-26T12:16:28;34.40;50.40
20590;DHT22;10453;50.810;12.540;2023-06-26T12:20:46;35.20;48.30
20590;DHT22;10453;50.810;12.540;2023-06-26T12:25:03;34.80;50.00
20590;DHT22;10453;50.810;12.540;2023-06-26T12:29:32;35.40;50.90
20590;DHT22;10453;50.810;12.540;2023-06-26T12:33:52;34.80;54.70
20590;DHT22;10453;50.810;12.540;2023-06-26T12:38:09;34.90;48.40
20590;DHT22;10453;50.810;12.540;2023-06-26T12:42:28;35.00;50.30
20590;DHT22;10453;50.810;12.540;2023-06-26T12:46:54;35.50;47.30
20590;DHT22;10453;50.810;12.540;2023-06-26T12:51:16;33.70;48.40
20590;DHT22;10453;50.810;12.540;2023-06-26T12:55:33;34.40;50.30
20590;DHT22;10453;50.810;12.540;2023-06-26T12:59:52;33.20;49.20
20590;DHT22;10453;50.810;12.540;2023-06-26T13:04:10;33.50;50.70
20590;DHT22;10453;50.810;12.540;2023-06-26T13:08:27;32.40;52.80
20590;DHT22;10453;50.810;12.540;2023-06-26T13:12:46;32.10;54.20
20590;DHT22;10453;50.810;12.540;2023-06-26T13:17:03;33.40;55.50
20590;DHT22;10453;50.810;12.540;2023-06-26T13:21:24;34.90;49.60
20590;DHT22;10453;50.810;12.540;2023-06-26T13:25:42;34.00;50.40
20590;DHT22;10453;50.810;12.540;2023-06-26T13:29:59;34.20;49.40
20590;DHT22;10453;50.810;12.540;2023-06-26T13:34:23;34.80;49.60
20590;DHT22;10453;50.810;12.540;2023-06-26T13:38:40;35.00;52.10
20590;DHT22;10453;50.810;12.540;2023-06-26T13:42:57;33.40;51.80
20590;DHT22;10453;50.810;12.540;2023-06-26T13:47:15;34.60;55.50
20590;DHT22;10453;50.810;12.540;2023-06-26T13:51:32;35.20;52.50
20590;DHT22;10453;50.810;12.540;2023-06-26T13:55:49;35.90;50.00
20590;DHT22;10453;50.810;12.540;2023-06-26T14:00:08;35.40;48.40
20590;DHT22;10453;50.810;12.540;2023-06-26T14:04:26;35.20;50.00
20590;DHT22;10453;50.810;12.540;2023-06-26T14:08:43;34.50;50.00
20590;DHT22;10453;50.810;12.540;2023-06-26T14:13:00;35.50;49.10
20590;DHT22;10453;50.810;12.540;2023-06-26T14:17:19;35.80;46.80
20590;DHT22;10453;50.810;12.540;2023-06-26T14:21:36;32.80;53.00
20590;DHT22;10453;50.810;12.540;2023-06-26T14:25:53;32.10;53.40
20590;DHT22;10453;50.810;12.540;2023-06-26T14:30:10;31.70;53.00
20590;DHT22;10453;50.810;12.540;2023-06-26T14:34:28;32.00;53.60
20590;DHT22;10453;50.810;12.540;2023-06-26T14:38:45;32.50;54.00
20590;DHT22;10453;50.810;12.540;2023-06-26T14:43:03;31.30;50.30
20590;DHT22;10453;50.810;12.540;2023-06-26T14:47:20;30.60;53.20
20590;DHT22;10453;50.810;12.540;2023-06-26T14:51:37;30.00;52.90
20590;DHT22;10453;50.810;12.540;2023-06-26T14:55:56;29.60;55.90
20590;DHT22;10453;50.810;12.540;2023-06-26T15:00:13;27.70;86.10
20590;DHT22;10453;50.810;12.540;2023-06-26T15:04:31;26.20;99.90
20590;DHT22;10453;50.810;12.540;2023-06-26T15:08:49;26.30;99.90
20590;DHT22;10453;50.810;12.540;2023-06-26T15:13:06;25.80;99.90
20590;DHT22;10453;50.810;12.540;2023-06-26T15:17:24;25.00;99.90
20590;DHT22;10453;50.810;12.540;2023-06-26T15:21:42;24.60;99.90
20590;DHT22;10453;50.810;12.540;2023-06-26T15:25:59;24.30;99.90
20590;DHT22;10453;50.810;12.540;2023-06-26T15:30:16;24.30;99.90
20590;DHT22;10453;50.810;12.540;2023-06-26T15:34:34;24.60;99.90
20590;DHT22;10453;50.810;12.540;2023-06-26T15:38:51;26.50;99.90
20590;DHT22;10453;50.810;12.540;2023-06-26T15:43:08;27.90;99.90
20590;DHT22;10453;50.810;12.540;2023-06-26T15:47:25;28.30;99.90
20590;DHT22;10453;50.810;12.540;2023-06-26T15:51:42;27.50;99.90
20590;DHT22;10453;50.810;12.540;2023-06-26T15:56:06;27.10;99.90
20590;DHT22;10453;50.810;12.540;2023-06-26T16:00:24;26.80;99.90
20590;DHT22;10453;50.810;12.540;2023-06-26T16:04:41;26.10;99.90
20590;DHT22;10453;50.810;12.540;2023-06-26T16:08:58;25.70;99.90
20590;DHT22;10453;50.810;12.540;2023-06-26T16:13:16;25.40;99.90
20590;DHT22;10453;50.810;12.540;2023-06-26T16:17:35;25.20;99.90
20590;DHT22;10453;50.810;12.540;2023-06-26T16:21:53;24.80;99.90
20590;DHT22;10453;50.810;12.540;2023-06-26T16:26:10;24.20;99.90
20590;DHT22;10453;50.810;12.540;2023-06-26T16:30:27;23.90;99.90
20590;DHT22;10453;50.810;12.540;2023-06-26T16:34:44;24.00;99.90
20590;DHT22;10453;50.810;12.540;2023-06-26T16:39:01;24.10;99.90
20590;DHT22;10453;50.810;12.540;2023-06-26T16:43:18;24.00;99.90
20590;DHT22;10453;50.810;12.540;2023-06-26T16:47:36;23.80;99.90
20590;DHT22;10453;50.810;12.540;2023-06-26T16:51:56;23.70;99.90
20590;DHT22;10453;50.810;12.540;2023-06-26T16:56:13;23.70;99.90
20590;DHT22;10453;50.810;12.540;2023-06-26T17:00:31;23.70;99.90
20590;DHT22;10453;50.810;12.540;2023-06-26T17:04:48;23.60;99.90
20590;DHT22;10453;50.810;12.540;2023-06-26T17:09:05;23.30;99.90
20590;DHT22;10453;50.810;12.540;2023-06-26T17:13:22;23.10;99.90
20590;DHT22;10453;50.810;12.540;2023-06-26T17:17:39;22.90;99.90
20590;DHT22;10453;50.810;12.540;2023-06-26T17:21:57;22.80;99.90
20590;DHT22;10453;50.810;12.540;2023-06-26T17:26:14;22.70;99.90
20590;DHT22;10453;50.810;12.540;2023-06-26T17:30:31;22.60;99.90
20590;DHT22;10453;50.810;12.540;2023-06-26T17:34:50;22.40;99.90
20590;DHT22;10453;50.810;12.540;2023-06-26T17:39:07;22.30;99.90
20590;DHT22;10453;50.810;12.540;2023-06-26T17:43:24;22.40;99.90
20590;DHT22;10453;50.810;12.540;2023-06-26T17:47:42;22.40;99.90
20590;DHT22;10453;50.810;12.540;2023-06-26T17:51:59;22.30;99.90
20590;DHT22;10453;50.810;12.540;2023-06-26T17:56:21;22.20;99.90
20590;DHT22;10453;50.810;12.540;2023-06-26T18:00:38;22.20;99.90
20590;DHT22;10453;50.810;12.540;2023-06-26T18:04:56;22.40;99.90
20590;DHT22;10453;50.810;12.540;2023-06-26T18:09:13;22.40;99.90
20590;DHT22;10453;50.810;12.540;2023-06-26T18:13:30;22.30;99.90
20590;DHT22;10453;50.810;12.540;2023-06-26T18:17:48;22.30;99.90
20590;DHT22;10453;50.810;12.540;2023-06-26T18:22:06;22.30;99.90
20590;DHT22;10453;50.810;12.540;2023-06-26T18:26:23;22.20;99.90
20590;DHT22;10453;50.810;12.540;2023-06-26T18:30:40;22.10;99.90
20590;DHT22;10453;50.810;12.540;2023-06-26T18:34:58;22.10;99.90
20590;DHT22;10453;50.810;12.540;2023-06-26T18:39:15;22.00;99.90
20590;DHT22;10453;50.810;12.540;2023-06-26T18:43:32;22.00;99.90
20590;DHT22;10453;50.810;12.540;2023-06-26T18:47:49;21.80;99.90
20590;DHT22;10453;50.810;12.540;2023-06-26T18:52:09;21.70;99.90
20590;DHT22;10453;50.810;12.540;2023-06-26T18:56:28;21.90;99.90
20590;DHT22;10453;50.810;12.540;2023-06-26T19:00:45;21.70;99.90
20590;DHT22;10453;50.810;12.540;2023-06-26T19:05:02;21.70;99.90
20590;DHT22;10453;50.810;12.540;2023-06-26T19:09:19;21.70;99.90
20590;DHT22;10453;50.810;12.540;2023-06-26T19:13:37;21.70;99.90
20590;DHT22;10453;50.810;12.540;2023-06-26T19:17:54;21.60;99.90
20590;DHT22;10453;50.810;12.540;2023-06-26T19:22:12;21.60;99.90
20590;DHT22;10453;50.810;12.540;2023-06-26T19:26:29;21.40;99.90
20590;DHT22;10453;50.810;12.540;2023-06-26T19:30:46;21.40;99.90
20590;DHT22;10453;50.810;12.540;2023-06-26T19:35:04;21.40;99.90
20590;DHT22;10453;50.810;12.540;2023-06-26T19:39:21;21.40;99.90
20590;DHT22;10453;50.810;12.540;2023-06-26T19:43:38;21.40;99.90
20590;DHT22;10453;50.810;12.540;2023-06-26T19:47:55;21.40;99.90
20590;DHT22;10453;50.810;12.540;2023-06-26T19:52:12;21.30;99.90
20590;DHT22;10453;50.810;12.540;2023-06-26T19:56:30;21.30;99.90
20590;DHT22;10453;50.810;12.540;2023-06-26T20:00:47;21.40;99.90
20590;DHT22;10453;50.810;12.540;2023-06-26T20:05:05;21.40;99.90
20590;DHT22;10453;50.810;12.540;2023-06-26T20:09:22;21.30;99.90
20590;DHT22;10453;50.810;12.540;2023-06-26T20:13:43;21.30;99.90
20590;DHT22;10453;50.810;12.540;2023-06-26T20:18:00;21.20;99.90
20590;DHT22;10453;50.810;12.540;2023-06-26T20:22:17;21.20;99.90
20590;DHT22;10453;50.810;12.540;2023-06-26T20:26:34;21.20;99.90
20590;DHT22;10453;50.810;12.540;2023-06-26T20:30:51;21.20;99.90
20590;DHT22;10453;50.810;12.540;2023-06-26T20:35:09;21.20;99.90
20590;DHT22;10453;50.810;12.540;2023-06-26T20:39:26;21.10;99.90
20590;DHT22;10453;50.810;12.540;2023-06-26T20:43:45;21.10;99.90
20590;DHT22;10453;50.810;12.540;2023-06-26T20:48:02;21.00;99.90
20590;DHT22;10453;50.810;12.540;2023-06-26T20:52:20;21.00;99.90
20590;DHT22;10453;50.810;12.540;2023-06-26T20:56:37;21.00;99.90
20590;DHT22;10453;50.810;12.540;2023-06-26T21:00:54;20.90;99.90
20590;DHT22;10453;50.810;12.540;2023-06-26T21:05:11;20.70;99.90
20590;DHT22;10453;50.810;12.540;2023-06-26T21:09:29;20.60;99.90
20590;DHT22;10453;50.810;12.540;2023-06-26T21:13:46;20.60;99.90
20590;DHT22;10453;50.810;12.540;2023-06-26T21:18:03;20.50;99.90
20590;DHT22;10453;50.810;12.540;2023-06-26T21:22:21;20.40;99.90
20590;DHT22;10453;50.810;12.540;2023-06-26T21:26:39;20.40;99.90
20590;DHT22;10453;50.810;12.540;2023-06-26T21:30:56;20.20;99.90
20590;DHT22;10453;50.810;12.540;2023-06-26T21:35:14;20.10;99.90
20590;DHT22;10453;50.810;12.540;2023-06-26T21:39:32;20.10;99.90
20590;DHT22;10453;50.810;12.540;2023-06-26T21:43:49;20.00;99.90
20590;DHT22;10453;50.810;12.540;2023-06-26T21:48:06;20.00;99.90
20590;DHT22;10453;50.810;12.540;2023-06-26T21:52:23;19.90;99.90
20590;DHT22;10453;50.810;12.540;2023-06-26T21:56:41;19.90;99.90
20590;DHT22;10453;50.810;12.540;2023-06-26T22:00:58;19.90;99.90
20590;DHT22;10453;50.810;12.540;2023-06-26T22:05:15;19.80;99.90
20590;DHT22;10453;50.810;12.540;2023-06-26T22:09:33;19.70;99.90
20590;DHT22;10453;50.810;12.540;2023-06-26T22:13:50;19.60;99.90
20590;DHT22;10453;50.810;12.540;2023-06-26T22:18:09;19.60;99.90
20590;DHT22;10453;50.810;12.540;2023-06-26T22:22:26;19.50;99.90
20590;DHT22;10453;50.810;12.540;2023-06-26T22:26:44;19.50;99.90
20590;DHT22;10453;50.810;12.540;2023-06-26T22:31:01;19.40;99.90
20590;DHT22;10453;50.810;12.540;2023-06-26T22:35:18;19.30;99.90
20590;DHT22;10453;50.810;12.540;2023-06-26T22:39:35;19.40;99.90
20590;DHT22;10453;50.810;12.540;2023-06-26T22:43:53;19.30;99.90
20590;DHT22;10453;50.810;12.540;2023-06-26T22:48:10;19.20;99.90
20590;DHT22;10453;50.810;12.540;2023-06-26T22:52:29;19.10;99.90
20590;DHT22;10453;50.810;12.540;2023-06-26T22:56:46;19.10;99.90
20590;DHT22;10453;50.810;12.540;2023-06-26T23:01:12;18.90;99.90
20590;DHT22;10453;50.810;12.540;2023-06-26T23:05:31;18.90;99.90
20590;DHT22;10453;50.810;12.540;2023-06-26T23:09:48;18.90;99.90
20590;DHT22;10453;50.810;12.540;2023-06-26T23:14:06;18.90;99.90
20590;DHT22;10453;50.810;12.540;2023-06-26T23:18:23;18.80;99.90
20590;DHT22;10453;50.810;12.540;2023-06-26T23:22:41;18.80;99.90
20590;DHT22;10453;50.810;12.540;2023-06-26T23:26:59;18.80;99.90
20590;DHT22;10453;50.810;12.540;2023-06-26T23:31:17;18.70;99.90
20590;DHT22;10453;50.810;12.540;2023-06-26T23:35:34;18.70;99.90
20590;DHT22;10453;50.810;12.540;2023-06-26T23:39:51;18.60;99.90
20590;DHT22;10453;50.810;12.540;2023-06-26T23:44:08;18.70;99.90
20590;DHT22;10453;50.810;12.540;2023-06-26T23:48:29;18.60;99.90
20590;DHT22;10453;50.810;12.540;2023-06-26T23:52:46;18.60;99.90
20590;DHT22;10453;50.810;12.540;2023-06-26T23:57:04;18.50;99.90
